createdAt,value
2022-12-25T00:01:22.151Z,9.59
2022-12-25T00:03:49.690Z,9.59
2022-12-25T00:06:16.685Z,9.57
2022-12-25T00:08:43.895Z,9.55
2022-12-25T00:11:16.136Z,9.55
2022-12-25T00:13:43.346Z,9.55
2022-12-25T00:16:22.104Z,9.54
2022-12-25T00:18:49.986Z,9.55
2022-12-25T00:21:17.744Z,9.56
2022-12-25T00:23:44.681Z,9.52
2022-12-25T00:26:13.908Z,9.54
2022-12-25T00:28:40.416Z,9.60
2022-12-25T00:31:18.000Z,9.58
2022-12-25T00:33:47.212Z,9.65
2022-12-25T00:36:15.149Z,9.61
2022-12-25T00:38:42.436Z,9.58
2022-12-25T00:41:13.923Z,9.61
2022-12-25T00:43:42.074Z,9.66
2022-12-25T00:46:11.083Z,9.66
2022-12-25T00:48:38.128Z,9.66
2022-12-25T00:51:07.350Z,9.66
2022-12-25T00:53:34.008Z,9.69
2022-12-25T00:56:03.338Z,9.66
2022-12-25T00:58:32.299Z,9.68
2022-12-25T01:00:58.975Z,9.62
2022-12-25T01:03:26.126Z,9.59
2022-12-25T01:06:01.607Z,9.60
2022-12-25T01:08:31.025Z,9.64
2022-12-25T01:11:00.471Z,9.64
2022-12-25T01:13:28.579Z,9.60
2022-12-25T01:15:55.228Z,9.62
2022-12-25T01:18:23.946Z,9.62
2022-12-25T01:20:51.086Z,9.63
2022-12-25T01:23:17.682Z,9.61
2022-12-25T01:25:44.218Z,9.61
2022-12-25T01:28:10.772Z,9.61
2022-12-25T01:30:37.298Z,9.61
2022-12-25T01:33:03.929Z,9.64
2022-12-25T01:35:30.727Z,9.68
2022-12-25T01:37:57.208Z,9.69
2022-12-25T01:40:23.694Z,9.68
2022-12-25T01:42:50.129Z,9.60
2022-12-25T01:45:37.341Z,9.60
2022-12-25T01:48:08.675Z,9.59
2022-12-25T01:50:38.487Z,9.53
2022-12-25T01:53:06.321Z,9.53
2022-12-25T01:55:33.993Z,9.48
2022-12-25T01:58:00.844Z,9.40
2022-12-25T02:00:27.383Z,9.34
2022-12-25T02:02:54.034Z,9.29
2022-12-25T02:05:27.000Z,9.21
2022-12-25T02:07:54.403Z,9.13
2022-12-25T02:10:21.166Z,9.14
2022-12-25T02:12:48.751Z,9.10
2022-12-25T02:15:18.582Z,9.11
2022-12-25T02:18:17.756Z,9.08
2022-12-25T02:20:52.139Z,9.10
2022-12-25T02:23:50.968Z,9.14
2022-12-25T02:26:35.884Z,9.13
2022-12-25T02:29:43.818Z,9.11
2022-12-25T02:32:16.125Z,9.02
2022-12-25T02:35:05.381Z,8.95
2022-12-25T02:37:58.105Z,8.89
2022-12-25T02:40:32.920Z,8.90
2022-12-25T02:43:22.838Z,8.86
2022-12-25T02:46:14.331Z,8.76
2022-12-25T02:49:05.320Z,8.70
2022-12-25T02:51:55.507Z,8.66
2022-12-25T02:54:45.828Z,8.59
2022-12-25T02:57:34.881Z,8.57
2022-12-25T03:00:22.047Z,8.63
2022-12-25T03:03:09.047Z,8.56
2022-12-25T03:05:57.023Z,8.61
2022-12-25T03:08:29.658Z,8.63
2022-12-25T03:11:21.181Z,8.64
2022-12-25T03:13:51.636Z,8.68
2022-12-25T03:16:38.623Z,8.72
2022-12-25T03:19:25.373Z,8.72
2022-12-25T03:22:12.818Z,8.73
2022-12-25T03:24:59.061Z,8.71
2022-12-25T03:27:28.571Z,8.70
2022-12-25T03:30:14.057Z,8.68
2022-12-25T03:33:18.060Z,8.65
2022-12-25T03:36:23.234Z,8.70
2022-12-25T03:39:26.909Z,8.71
2022-12-25T03:42:18.780Z,8.73
2022-12-25T03:45:16.580Z,8.66
2022-12-25T03:48:17.574Z,8.78
2022-12-25T03:51:10.074Z,8.83
2022-12-25T03:54:01.687Z,8.87
2022-12-25T03:56:49.082Z,8.92
2022-12-25T03:59:38.277Z,8.96
2022-12-25T04:02:23.845Z,8.96
2022-12-25T04:05:09.029Z,8.99
2022-12-25T04:07:54.193Z,8.97
2022-12-25T04:10:39.319Z,8.97
2022-12-25T04:13:24.542Z,8.93
2022-12-25T04:16:13.909Z,8.98
2022-12-25T04:18:59.241Z,8.97
2022-12-25T04:21:44.349Z,8.96
2022-12-25T04:24:29.897Z,8.96
2022-12-25T04:27:15.077Z,9.00
2022-12-25T04:30:00.585Z,9.03
2022-12-25T04:32:45.760Z,9.05
2022-12-25T04:35:31.244Z,9.08
2022-12-25T04:37:57.776Z,9.12
2022-12-25T04:40:24.289Z,9.18
2022-12-25T04:42:52.028Z,9.18
2022-12-25T04:45:18.988Z,9.16
2022-12-25T04:47:45.580Z,9.13
2022-12-25T04:50:12.434Z,9.18
2022-12-25T04:52:40.912Z,9.16
2022-12-25T04:55:08.925Z,9.21
2022-12-25T04:57:35.780Z,9.16
2022-12-25T05:00:02.313Z,9.14
2022-12-25T05:02:29.029Z,9.20
2022-12-25T05:04:55.706Z,9.16
2022-12-25T05:07:22.224Z,9.18
2022-12-25T05:09:48.682Z,9.16
2022-12-25T05:12:15.216Z,9.18
2022-12-25T05:14:41.756Z,9.15
2022-12-25T05:17:08.401Z,9.17
2022-12-25T05:19:35.362Z,9.15
2022-12-25T05:22:02.114Z,9.18
2022-12-25T05:24:28.866Z,9.24
2022-12-25T05:26:55.647Z,9.23
2022-12-25T05:29:22.263Z,9.21
2022-12-25T05:31:48.810Z,9.21
2022-12-25T05:34:15.379Z,9.21
2022-12-25T05:36:41.927Z,9.20
2022-12-25T05:39:08.460Z,9.25
2022-12-25T05:41:35.160Z,9.24
2022-12-25T05:44:01.890Z,9.24
2022-12-25T05:46:28.551Z,9.22
2022-12-25T05:48:55.114Z,9.22
2022-12-25T05:51:21.633Z,9.21
2022-12-25T05:53:48.248Z,9.19
2022-12-25T05:56:14.752Z,9.22
2022-12-25T05:58:41.450Z,9.21
2022-12-25T06:01:19.454Z,9.17
2022-12-25T06:03:46.065Z,9.17
2022-12-25T06:06:13.424Z,9.19
2022-12-25T06:08:40.171Z,9.18
2022-12-25T06:11:07.916Z,9.14
2022-12-25T06:13:35.200Z,9.14
2022-12-25T06:16:10.276Z,9.13
2022-12-25T06:18:39.218Z,9.05
2022-12-25T06:21:10.085Z,8.99
2022-12-25T06:23:37.805Z,8.88
2022-12-25T06:26:06.831Z,8.79
2022-12-25T06:28:33.423Z,8.76
2022-12-25T06:31:05.157Z,8.67
2022-12-25T06:33:31.714Z,8.61
2022-12-25T06:35:58.274Z,8.57
2022-12-25T06:38:24.777Z,8.59
2022-12-25T06:40:51.312Z,8.60
2022-12-25T06:43:17.778Z,8.57
2022-12-25T06:45:44.385Z,8.52
2022-12-25T06:48:10.967Z,8.44
2022-12-25T06:50:43.207Z,8.41
2022-12-25T06:53:09.661Z,8.37
2022-12-25T06:55:36.131Z,8.33
2022-12-25T06:58:02.637Z,8.29
2022-12-25T07:00:29.105Z,8.26
2022-12-25T07:02:55.791Z,8.27
2022-12-25T07:05:22.375Z,8.31
2022-12-25T07:07:48.865Z,8.32
2022-12-25T07:10:15.539Z,8.41
2022-12-25T07:12:42.051Z,8.38
2022-12-25T07:15:09.328Z,8.34
2022-12-25T07:17:36.074Z,8.34
2022-12-25T07:20:02.794Z,8.31
2022-12-25T07:22:30.219Z,8.31
2022-12-25T07:24:56.774Z,8.28
2022-12-25T07:27:23.396Z,8.33
2022-12-25T07:29:49.889Z,8.37
2022-12-25T07:32:16.559Z,8.34
2022-12-25T07:34:43.140Z,8.30
2022-12-25T07:37:09.888Z,8.30
2022-12-25T07:39:36.458Z,8.31
2022-12-25T07:42:03.169Z,8.28
2022-12-25T07:44:29.657Z,8.30
2022-12-25T07:46:56.221Z,8.31
2022-12-25T07:49:22.846Z,8.32
2022-12-25T07:51:49.338Z,8.32
2022-12-25T07:54:15.862Z,8.31
2022-12-25T07:56:42.352Z,8.33
2022-12-25T07:59:08.907Z,8.35
2022-12-25T08:01:35.592Z,8.29
2022-12-25T08:04:04.175Z,8.32
2022-12-25T08:06:33.338Z,8.34
2022-12-25T08:09:05.810Z,8.30
2022-12-25T08:11:32.557Z,8.32
2022-12-25T08:13:59.190Z,8.32
2022-12-25T08:16:25.765Z,8.33
2022-12-25T08:18:53.334Z,8.34
2022-12-25T08:21:19.884Z,8.32
2022-12-25T08:23:48.433Z,8.38
2022-12-25T08:26:21.051Z,8.42
2022-12-25T08:28:48.659Z,8.45
2022-12-25T08:31:23.843Z,8.53
2022-12-25T08:33:52.955Z,8.58
2022-12-25T08:36:20.323Z,8.61
2022-12-25T08:38:47.627Z,8.69
2022-12-25T08:41:15.218Z,8.67
2022-12-25T08:43:42.343Z,8.74
2022-12-25T08:46:09.442Z,8.76
2022-12-25T08:48:36.078Z,8.76
2022-12-25T08:51:03.586Z,8.81
2022-12-25T08:53:30.177Z,8.80
2022-12-25T08:56:00.910Z,8.80
2022-12-25T08:58:28.244Z,8.80
2022-12-25T09:00:54.780Z,8.78
2022-12-25T09:03:21.663Z,8.78
2022-12-25T09:05:48.406Z,8.76
2022-12-25T09:08:14.957Z,8.75
2022-12-25T09:10:42.312Z,8.75
2022-12-25T09:13:09.833Z,8.72
2022-12-25T09:15:38.758Z,8.70
2022-12-25T09:18:06.008Z,8.66
2022-12-25T09:20:33.266Z,8.64
2022-12-25T09:22:59.766Z,8.62
2022-12-25T09:25:26.324Z,8.58
2022-12-25T09:27:53.046Z,8.57
2022-12-25T09:30:19.672Z,8.54
2022-12-25T09:32:46.158Z,8.52
2022-12-25T09:35:14.045Z,8.51
2022-12-25T09:37:40.573Z,8.51
2022-12-25T09:40:08.092Z,8.49
2022-12-25T09:42:34.798Z,8.48
2022-12-25T09:45:06.410Z,8.50
2022-12-25T09:47:38.457Z,8.47
2022-12-25T09:50:15.442Z,8.45
2022-12-25T09:52:55.108Z,8.45
2022-12-25T09:55:24.593Z,8.48
2022-12-25T09:58:00.559Z,8.50
2022-12-25T10:00:41.923Z,8.53
2022-12-25T10:03:11.481Z,8.55
2022-12-25T10:06:00.895Z,8.56
2022-12-25T10:08:47.385Z,8.60
2022-12-25T10:11:52.782Z,8.62
2022-12-25T10:14:40.661Z,8.64
2022-12-25T10:17:21.929Z,8.64
2022-12-25T10:20:01.198Z,8.65
2022-12-25T10:22:34.875Z,8.66
2022-12-25T10:25:03.955Z,8.65
2022-12-25T10:27:34.880Z,8.67
2022-12-25T10:30:02.425Z,8.67
2022-12-25T10:32:28.971Z,8.66
2022-12-25T10:34:55.607Z,8.65
2022-12-25T10:37:22.145Z,8.67
2022-12-25T10:39:48.800Z,8.69
2022-12-25T10:42:38.845Z,8.71
2022-12-25T10:45:09.077Z,8.72
2022-12-25T10:47:39.332Z,8.72
2022-12-25T10:50:18.139Z,8.69
2022-12-25T10:53:04.791Z,8.66
2022-12-25T10:55:32.301Z,8.65
2022-12-25T10:57:59.289Z,8.66
2022-12-25T11:00:31.427Z,8.65
2022-12-25T11:02:59.281Z,8.66
2022-12-25T11:05:29.281Z,8.66
2022-12-25T11:07:57.062Z,8.70
2022-12-25T11:10:31.683Z,8.74
2022-12-25T11:13:00.101Z,8.76
2022-12-25T11:15:38.890Z,8.81
2022-12-25T11:18:19.113Z,8.83
2022-12-25T11:21:01.956Z,8.84
2022-12-25T11:23:31.264Z,8.92
2022-12-25T11:26:06.116Z,8.97
2022-12-25T11:28:37.206Z,8.98
2022-12-25T11:31:22.510Z,9.00
2022-12-25T11:33:57.011Z,9.01
2022-12-25T11:36:46.070Z,9.00
2022-12-25T11:39:26.862Z,9.03
2022-12-25T11:42:12.360Z,9.03
2022-12-25T11:45:18.903Z,9.04
2022-12-25T11:47:51.967Z,8.99
2022-12-25T11:50:30.912Z,9.09
2022-12-25T11:53:02.427Z,9.10
2022-12-25T11:55:41.510Z,9.11
2022-12-25T11:58:28.716Z,9.20
2022-12-25T12:00:58.855Z,9.23
2022-12-25T12:03:33.655Z,9.22
2022-12-25T12:06:03.752Z,9.24
2022-12-25T12:08:32.547Z,9.29
2022-12-25T12:11:52.551Z,9.29
2022-12-25T12:14:37.654Z,9.34
2022-12-25T12:17:04.481Z,9.34
2022-12-25T12:19:31.912Z,9.36
2022-12-25T12:22:02.376Z,9.37
2022-12-25T12:24:38.932Z,9.42
2022-12-25T12:27:27.415Z,9.43
2022-12-25T12:29:57.483Z,9.41
2022-12-25T12:32:35.774Z,9.41
2022-12-25T12:35:21.655Z,9.42
2022-12-25T12:37:57.715Z,9.42
2022-12-25T12:40:37.845Z,9.39
2022-12-25T12:43:06.082Z,9.39
2022-12-25T12:45:37.981Z,9.43
2022-12-25T12:48:22.781Z,9.41
2022-12-25T12:50:49.286Z,9.32
2022-12-25T12:53:34.274Z,9.32
2022-12-25T12:56:10.733Z,9.29
2022-12-25T12:58:45.125Z,9.21
2022-12-25T13:01:26.704Z,9.20
2022-12-25T13:04:14.387Z,9.19
2022-12-25T13:07:10.314Z,9.16
2022-12-25T13:10:07.851Z,9.13
2022-12-25T13:12:34.728Z,9.12
2022-12-25T13:15:01.318Z,9.14
2022-12-25T13:17:28.860Z,9.15
2022-12-25T13:19:58.738Z,9.14
2022-12-25T13:22:36.327Z,9.17
2022-12-25T13:25:08.877Z,9.17
2022-12-25T13:27:35.446Z,9.18
2022-12-25T13:30:12.600Z,9.18
2022-12-25T13:32:39.167Z,9.18
2022-12-25T13:35:14.355Z,9.17
2022-12-25T13:37:42.486Z,9.17
2022-12-25T13:40:21.439Z,9.23
2022-12-25T13:42:49.803Z,9.24
2022-12-25T13:45:24.062Z,9.25
2022-12-25T13:47:55.432Z,9.26
2022-12-25T13:50:34.443Z,9.29
2022-12-25T13:53:12.478Z,9.32
2022-12-25T13:55:40.027Z,9.31
2022-12-25T13:58:15.470Z,9.30
2022-12-25T14:00:53.668Z,9.30
2022-12-25T14:03:30.470Z,9.33
2022-12-25T14:06:02.435Z,9.34
2022-12-25T14:08:35.180Z,9.36
2022-12-25T14:11:04.669Z,9.36
2022-12-25T14:13:35.487Z,9.41
2022-12-25T14:16:02.455Z,9.39
2022-12-25T14:18:30.743Z,9.35
2022-12-25T14:21:04.159Z,9.36
2022-12-25T14:23:43.697Z,9.34
2022-12-25T14:26:20.692Z,9.34
2022-12-25T14:28:57.779Z,9.35
2022-12-25T14:31:24.842Z,9.33
2022-12-25T14:33:52.637Z,9.31
2022-12-25T14:36:19.338Z,9.31
2022-12-25T14:38:57.070Z,9.31
2022-12-25T14:41:37.894Z,9.30
2022-12-25T14:44:25.513Z,9.29
2022-12-25T14:47:04.009Z,9.26
2022-12-25T14:49:31.978Z,9.25
2022-12-25T14:51:58.839Z,9.21
2022-12-25T14:54:26.710Z,9.21
2022-12-25T14:56:56.120Z,9.22
2022-12-25T14:59:26.153Z,9.22
2022-12-25T15:01:57.026Z,9.21
2022-12-25T15:04:26.995Z,9.19
2022-12-25T15:06:57.877Z,9.19
2022-12-25T15:09:24.419Z,9.17
2022-12-25T15:11:55.954Z,9.14
2022-12-25T15:14:23.927Z,9.14
2022-12-25T15:16:53.911Z,9.12
2022-12-25T15:19:30.456Z,9.12
2022-12-25T15:22:01.904Z,9.08
2022-12-25T15:24:28.427Z,9.07
2022-12-25T15:26:55.419Z,9.08
2022-12-25T15:29:44.592Z,9.07
2022-12-25T15:32:18.967Z,9.05
2022-12-25T15:34:47.270Z,9.02
2022-12-25T15:37:14.334Z,8.98
2022-12-25T15:39:40.929Z,8.95
2022-12-25T15:42:25.830Z,8.93
2022-12-25T15:44:52.373Z,8.94
2022-12-25T15:47:22.969Z,8.89
2022-12-25T15:49:49.551Z,8.87
2022-12-25T15:52:17.794Z,8.83
2022-12-25T15:54:44.511Z,8.80
2022-12-25T15:57:18.329Z,8.83
2022-12-25T15:59:45.247Z,8.82
2022-12-25T16:02:18.301Z,8.80
2022-12-25T16:04:45.348Z,8.79
2022-12-25T16:07:19.016Z,8.82
2022-12-25T16:09:46.183Z,8.80
2022-12-25T16:12:13.126Z,8.81
2022-12-25T16:14:39.746Z,8.79
2022-12-25T16:17:06.360Z,8.76
2022-12-25T16:19:32.999Z,8.77
2022-12-25T16:21:59.561Z,8.78
2022-12-25T16:24:26.130Z,8.80
2022-12-25T16:26:52.607Z,8.78
2022-12-25T16:29:19.168Z,8.77
2022-12-25T16:31:45.819Z,8.79
2022-12-25T16:34:12.345Z,8.79
2022-12-25T16:36:39.070Z,8.78
2022-12-25T16:39:06.711Z,8.81
2022-12-25T16:41:33.472Z,8.82
2022-12-25T16:44:04.771Z,8.82
2022-12-25T16:46:31.329Z,8.82
2022-12-25T16:48:57.855Z,8.83
2022-12-25T16:51:24.520Z,8.80
2022-12-25T16:53:51.239Z,8.80
2022-12-25T16:56:20.664Z,8.81
2022-12-25T16:58:47.986Z,8.82
2022-12-25T17:01:17.898Z,8.82
2022-12-25T17:03:45.210Z,8.84
2022-12-25T17:06:23.143Z,8.85
2022-12-25T17:08:51.959Z,8.84
2022-12-25T17:11:23.588Z,8.85
2022-12-25T17:13:50.142Z,8.84
2022-12-25T17:16:19.070Z,8.83
2022-12-25T17:18:45.966Z,8.81
2022-12-25T17:21:14.503Z,8.78
2022-12-25T17:23:41.066Z,8.79
2022-12-25T17:26:07.611Z,8.81
2022-12-25T17:28:34.814Z,8.80
2022-12-25T17:31:03.414Z,8.79
2022-12-25T17:33:29.921Z,8.76
2022-12-25T17:36:03.908Z,8.78
2022-12-25T17:38:32.315Z,8.74
2022-12-25T17:41:00.570Z,8.75
2022-12-25T17:43:27.297Z,8.75
2022-12-25T17:45:53.824Z,8.75
2022-12-25T17:48:20.348Z,8.73
2022-12-25T17:50:47.448Z,8.74
2022-12-25T17:53:14.095Z,8.72
2022-12-25T17:55:41.423Z,8.72
2022-12-25T17:58:09.173Z,8.67
2022-12-25T18:00:36.838Z,8.66
2022-12-25T18:03:10.890Z,8.65
2022-12-25T18:05:38.292Z,8.62
2022-12-25T18:08:05.356Z,8.62
2022-12-25T18:10:42.775Z,8.64
2022-12-25T18:13:11.070Z,8.62
2022-12-25T18:15:41.540Z,8.62
2022-12-25T18:18:08.927Z,8.64
2022-12-25T18:20:39.945Z,8.59
2022-12-25T18:23:07.054Z,8.68
2022-12-25T18:25:33.845Z,8.68
2022-12-25T18:28:02.691Z,8.69
2022-12-25T18:30:29.535Z,8.71
2022-12-25T18:32:56.610Z,8.68
2022-12-25T18:35:23.501Z,8.72
2022-12-25T18:37:50.195Z,8.74
2022-12-25T18:40:16.797Z,8.76
2022-12-25T18:42:46.173Z,8.75
2022-12-25T18:45:15.063Z,8.76
2022-12-25T18:47:42.834Z,8.74
2022-12-25T18:50:10.630Z,8.76
2022-12-25T18:52:48.124Z,8.75
2022-12-25T18:55:17.877Z,8.77
2022-12-25T18:57:44.544Z,8.78
2022-12-25T19:00:11.366Z,8.75
2022-12-25T19:02:37.947Z,8.77
2022-12-25T19:05:05.798Z,8.77
2022-12-25T19:07:32.493Z,8.79
2022-12-25T19:09:59.534Z,8.77
2022-12-25T19:12:26.126Z,8.75
2022-12-25T19:14:52.964Z,8.75
2022-12-25T19:17:19.589Z,8.73
2022-12-25T19:19:46.384Z,8.74
2022-12-25T19:22:13.009Z,8.77
2022-12-25T19:24:39.587Z,8.76
2022-12-25T19:27:06.289Z,8.75
2022-12-25T19:29:33.027Z,8.75
2022-12-25T19:32:00.625Z,8.75
2022-12-25T19:34:27.292Z,8.77
2022-12-25T19:36:53.831Z,8.76
2022-12-25T19:39:20.576Z,8.74
2022-12-25T19:41:47.577Z,8.77
2022-12-25T19:44:15.182Z,8.70
2022-12-25T19:46:42.166Z,8.72
2022-12-25T19:49:13.314Z,8.73
2022-12-25T19:51:43.499Z,8.69
2022-12-25T19:54:18.804Z,8.77
2022-12-25T19:56:46.190Z,8.76
2022-12-25T19:59:14.389Z,8.76
2022-12-25T20:01:41.344Z,8.75
2022-12-25T20:04:09.819Z,8.75
2022-12-25T20:06:38.454Z,8.72
2022-12-25T20:09:24.149Z,8.72
2022-12-25T20:11:50.686Z,8.72
2022-12-25T20:14:17.994Z,8.68
2022-12-25T20:16:44.629Z,8.67
2022-12-25T20:19:13.857Z,8.66
2022-12-25T20:21:41.101Z,8.66
2022-12-25T20:24:10.230Z,8.66
2022-12-25T20:26:38.693Z,8.67
2022-12-25T20:29:05.539Z,8.62
2022-12-25T20:31:34.314Z,8.67
2022-12-25T20:34:05.793Z,8.64
2022-12-25T20:36:37.180Z,8.67
2022-12-25T20:39:09.914Z,8.67
2022-12-25T20:41:37.062Z,8.64
2022-12-25T20:44:04.378Z,8.64
2022-12-25T20:46:31.118Z,8.62
2022-12-25T20:48:58.059Z,8.61
2022-12-25T20:51:25.914Z,8.59
2022-12-25T20:53:53.615Z,8.60
2022-12-25T20:56:22.366Z,8.61
2022-12-25T20:58:54.335Z,8.60
2022-12-25T21:01:21.003Z,8.64
2022-12-25T21:03:47.799Z,8.63
2022-12-25T21:06:15.353Z,8.61
2022-12-25T21:08:42.279Z,8.62
2022-12-25T21:11:11.887Z,8.62
2022-12-25T21:13:41.612Z,8.62
2022-12-25T21:16:12.257Z,8.58
2022-12-25T21:18:39.079Z,8.60
2022-12-25T21:21:07.741Z,8.52
2022-12-25T21:23:36.385Z,8.42
2022-12-25T21:26:10.061Z,8.33
2022-12-25T21:28:36.659Z,8.27
2022-12-25T21:31:07.085Z,8.25
2022-12-25T21:33:52.313Z,8.17
2022-12-25T21:36:20.382Z,8.18
2022-12-25T21:38:47.099Z,8.15
2022-12-25T21:41:15.779Z,8.19
2022-12-25T21:43:42.930Z,8.17
2022-12-25T21:46:14.245Z,8.15
2022-12-25T21:48:41.833Z,8.19
2022-12-25T21:51:39.903Z,8.20
2022-12-25T21:54:07.251Z,8.19
2022-12-25T21:56:43.129Z,8.08
2022-12-25T21:59:13.844Z,8.03
2022-12-25T22:01:40.384Z,8.02
2022-12-25T22:04:09.117Z,8.05
2022-12-25T22:06:54.500Z,8.10
2022-12-25T22:09:21.786Z,8.14
2022-12-25T22:12:06.939Z,8.16
2022-12-25T22:14:56.799Z,8.17
2022-12-25T22:17:47.657Z,8.17
2022-12-25T22:20:24.161Z,8.15
2022-12-25T22:22:51.115Z,8.16
2022-12-25T22:25:18.103Z,8.15
2022-12-25T22:27:46.185Z,8.15
2022-12-25T22:30:19.438Z,8.18
2022-12-25T22:32:46.476Z,8.22
2022-12-25T22:35:14.234Z,8.25
2022-12-25T22:37:42.703Z,8.27
2022-12-25T22:40:13.155Z,8.29
2022-12-25T22:42:39.823Z,8.30
2022-12-25T22:45:07.010Z,8.30
2022-12-25T22:47:33.563Z,8.33
2022-12-25T22:50:00.070Z,8.35
2022-12-25T22:52:26.655Z,8.34
2022-12-25T22:54:53.243Z,8.34
2022-12-25T22:57:19.774Z,8.32
2022-12-25T22:59:46.307Z,8.31
2022-12-25T23:02:13.055Z,8.32
2022-12-25T23:04:39.736Z,8.28
2022-12-25T23:07:06.337Z,8.31
2022-12-25T23:09:32.820Z,8.36
2022-12-25T23:11:59.381Z,8.40
2022-12-25T23:14:53.265Z,8.41
2022-12-25T23:17:38.109Z,8.45
2022-12-25T23:20:24.379Z,8.43
2022-12-25T23:23:09.852Z,8.44
2022-12-25T23:25:54.820Z,8.46
2022-12-25T23:28:40.554Z,8.46
2022-12-25T23:31:07.541Z,8.46
2022-12-25T23:33:34.129Z,8.46
2022-12-25T23:36:00.652Z,8.46
2022-12-25T23:38:27.164Z,8.47
2022-12-25T23:40:53.688Z,8.46
2022-12-25T23:43:20.343Z,8.48
2022-12-25T23:45:46.819Z,8.47
2022-12-25T23:48:13.353Z,8.47
2022-12-25T23:50:39.887Z,8.46
2022-12-25T23:53:06.569Z,8.42
2022-12-25T23:55:33.964Z,8.36
2022-12-25T23:58:00.452Z,8.30
